<?xml version="1.0" encoding="utf-8"?>
<gpx xmlns:xsi="http://www.w3.org/2001/XMLSchema-instance" xmlns:xsd="http://www.w3.org/2001/XMLSchema" version="1.1" creator="Shapelink.com" xmlns="http://www.topografix.com/GPX/1/1" xmlns:gpxtpx="http://www.garmin.com/xmlschemas/TrackPointExtension/v1">
  <metadata>
    <name>Övrigt 2.52 km, 2019-01-26</name>
    <desc></desc>
    <author><name>Marian Moron</name></author> 
    <time>2019-01-26T21:25:32Z</time>
  </metadata>
  <trk>
    <name>Övrigt 2.52 km, 2019-01-26</name>
    <trkseg>
      <trkpt lat="51.229991415684" lon="4.458526818623">
        <ele>5.6</ele>
        <time>2019-01-26T21:25:32Z</time>
      </trkpt>
      <trkpt lat="51.230003653258" lon="4.458869973609">
        <ele>3.8</ele>
        <time>2019-01-26T21:26:09Z</time>
      </trkpt>
      <trkpt lat="51.230060314902" lon="4.458857233121">
        <ele>4.2</ele>
        <time>2019-01-26T21:26:23Z</time>
      </trkpt>
      <trkpt lat="51.230508076" lon="4.458724547644">
        <ele>6.4</ele>
        <time>2019-01-26T21:26:56Z</time>
      </trkpt>
      <trkpt lat="51.230614190854" lon="4.458682638144">
        <ele>7.6</ele>
        <time>2019-01-26T21:27:05Z</time>
      </trkpt>
      <trkpt lat="51.230878304523" lon="4.458590269606">
        <ele>3.6</ele>
        <time>2019-01-26T21:27:33Z</time>
      </trkpt>
      <trkpt lat="51.231137724328" lon="4.458470576074">
        <ele>3.6</ele>
        <time>2019-01-26T21:27:55Z</time>
      </trkpt>
      <trkpt lat="51.23115432049" lon="4.45847594049">
        <ele>2.4</ele>
        <time>2019-01-26T21:28:09Z</time>
      </trkpt>
      <trkpt lat="51.231201845863" lon="4.458443921632">
        <ele>2.6</ele>
        <time>2019-01-26T21:28:13Z</time>
      </trkpt>
      <trkpt lat="51.23121550836" lon="4.458396144802">
        <ele>3</ele>
        <time>2019-01-26T21:28:18Z</time>
      </trkpt>
      <trkpt lat="51.231234870549" lon="4.458387595264">
        <ele>3.2</ele>
        <time>2019-01-26T21:28:20Z</time>
      </trkpt>
      <trkpt lat="51.231531086895" lon="4.458352558922">
        <ele>3.6</ele>
        <time>2019-01-26T21:28:52Z</time>
      </trkpt>
      <trkpt lat="51.231578947544" lon="4.458423888891">
        <ele>4.4</ele>
        <time>2019-01-26T21:29:01Z</time>
      </trkpt>
      <trkpt lat="51.231658659413" lon="4.458902327743">
        <ele>5.4</ele>
        <time>2019-01-26T21:29:21Z</time>
      </trkpt>
      <trkpt lat="51.231709872822" lon="4.459130399242">
        <ele>4.4</ele>
        <time>2019-01-26T21:29:37Z</time>
      </trkpt>
      <trkpt lat="51.231737616911" lon="4.459225701445">
        <ele>4.2</ele>
        <time>2019-01-26T21:29:47Z</time>
      </trkpt>
      <trkpt lat="51.231794278555" lon="4.459635660174">
        <ele>4</ele>
        <time>2019-01-26T21:30:08Z</time>
      </trkpt>
      <trkpt lat="51.231833673485" lon="4.459824252924">
        <ele>4.6</ele>
        <time>2019-01-26T21:30:39Z</time>
      </trkpt>
      <trkpt lat="51.231897292106" lon="4.460051653871">
        <ele>0.4</ele>
        <time>2019-01-26T21:30:50Z</time>
      </trkpt>
      <trkpt lat="51.23200340696" lon="4.4605370497">
        <ele>4.2</ele>
        <time>2019-01-26T21:31:12Z</time>
      </trkpt>
      <trkpt lat="51.23202436171" lon="4.460622712718">
        <ele>11.8</ele>
        <time>2019-01-26T21:31:20Z</time>
      </trkpt>
      <trkpt lat="51.23194473366" lon="4.461244984974">
        <ele>14.2</ele>
        <time>2019-01-26T21:31:51Z</time>
      </trkpt>
      <trkpt lat="51.231950265714" lon="4.461266610276">
        <ele>13.6</ele>
        <time>2019-01-26T21:31:52Z</time>
      </trkpt>
      <trkpt lat="51.232065684477" lon="4.461606999235">
        <ele>3</ele>
        <time>2019-01-26T21:32:14Z</time>
      </trkpt>
      <trkpt lat="51.232122010845" lon="4.462001283811">
        <ele>2.2</ele>
        <time>2019-01-26T21:32:35Z</time>
      </trkpt>
      <trkpt lat="51.232136930627" lon="4.462338739105">
        <ele>0</ele>
        <time>2019-01-26T21:32:58Z</time>
      </trkpt>
      <trkpt lat="51.232119747732" lon="4.462902840975">
        <ele>4.2</ele>
        <time>2019-01-26T21:33:28Z</time>
      </trkpt>
      <trkpt lat="51.232052105799" lon="4.463254042585">
        <ele>5.6</ele>
        <time>2019-01-26T21:33:51Z</time>
      </trkpt>
      <trkpt lat="51.231887820559" lon="4.463584624721">
        <ele>15.4</ele>
        <time>2019-01-26T21:34:08Z</time>
      </trkpt>
      <trkpt lat="51.231798301867" lon="4.46363332356">
        <ele>10.8</ele>
        <time>2019-01-26T21:34:16Z</time>
      </trkpt>
      <trkpt lat="51.231715572514" lon="4.463591246422">
        <ele>5.2</ele>
        <time>2019-01-26T21:34:29Z</time>
      </trkpt>
      <trkpt lat="51.231382224351" lon="4.463283714511">
        <ele>0</ele>
        <time>2019-01-26T21:35:03Z</time>
      </trkpt>
      <trkpt lat="51.231362694524" lon="4.46332906059">
        <ele>0.4</ele>
        <time>2019-01-26T21:35:05Z</time>
      </trkpt>
      <trkpt lat="51.231339476661" lon="4.463783527208">
        <ele>0</ele>
        <time>2019-01-26T21:35:33Z</time>
      </trkpt>
      <trkpt lat="51.23131525297" lon="4.464121485416">
        <ele>0</ele>
        <time>2019-01-26T21:35:52Z</time>
      </trkpt>
      <trkpt lat="51.231323383413" lon="4.464468496076">
        <ele>0</ele>
        <time>2019-01-26T21:36:09Z</time>
      </trkpt>
      <trkpt lat="51.231538714424" lon="4.464638732465">
        <ele>0</ele>
        <time>2019-01-26T21:36:33Z</time>
      </trkpt>
      <trkpt lat="51.231818334608" lon="4.46486546286">
        <ele>7.4</ele>
        <time>2019-01-26T21:37:01Z</time>
      </trkpt>
      <trkpt lat="51.231971639559" lon="4.465042656226">
        <ele>4.8</ele>
        <time>2019-01-26T21:37:17Z</time>
      </trkpt>
      <trkpt lat="51.232053195446" lon="4.46532479098">
        <ele>0.2</ele>
        <time>2019-01-26T21:37:32Z</time>
      </trkpt>
      <trkpt lat="51.231992426671" lon="4.465481867786">
        <ele>1.2</ele>
        <time>2019-01-26T21:37:49Z</time>
      </trkpt>
      <trkpt lat="51.231816322952" lon="4.46579585376">
        <ele>4.4</ele>
        <time>2019-01-26T21:38:08Z</time>
      </trkpt>
      <trkpt lat="51.231628400754" lon="4.46613532071">
        <ele>13.6</ele>
        <time>2019-01-26T21:38:30Z</time>
      </trkpt>
      <trkpt lat="51.231535277845" lon="4.466326344211">
        <ele>13.2</ele>
        <time>2019-01-26T21:38:45Z</time>
      </trkpt>
      <trkpt lat="51.231297734799" lon="4.466923889862">
        <ele>0.6</ele>
        <time>2019-01-26T21:39:24Z</time>
      </trkpt>
      <trkpt lat="51.230919124376" lon="4.467237624379">
        <ele>0</ele>
        <time>2019-01-26T21:40:01Z</time>
      </trkpt>
      <trkpt lat="51.230731369816" lon="4.467298057878">
        <ele>0</ele>
        <time>2019-01-26T21:40:20Z</time>
      </trkpt>
      <trkpt lat="51.230674708172" lon="4.467329070908">
        <ele>0</ele>
        <time>2019-01-26T21:40:25Z</time>
      </trkpt>
      <trkpt lat="51.23067655219" lon="4.46727525911">
        <ele>0.4</ele>
        <time>2019-01-26T21:40:37Z</time>
      </trkpt>
      <trkpt lat="51.230601366547" lon="4.46655609209">
        <ele>0</ele>
        <time>2019-01-26T21:41:15Z</time>
      </trkpt>
      <trkpt lat="51.230654172517" lon="4.466165411731">
        <ele>0</ele>
        <time>2019-01-26T21:41:44Z</time>
      </trkpt>
      <trkpt lat="51.230718294052" lon="4.465979585008">
        <ele>3</ele>
        <time>2019-01-26T21:41:54Z</time>
      </trkpt>
      <trkpt lat="51.230690549963" lon="4.465839607278">
        <ele>0</ele>
        <time>2019-01-26T21:42:09Z</time>
      </trkpt>
      <trkpt lat="51.230682168063" lon="4.465503744545">
        <ele>1.8</ele>
        <time>2019-01-26T21:42:38Z</time>
      </trkpt>
      <trkpt lat="51.230671103955" lon="4.465310457931">
        <ele>5.6</ele>
        <time>2019-01-26T21:42:52Z</time>
      </trkpt>
      <trkpt lat="51.230629865007" lon="4.464757001074">
        <ele>5.8</ele>
        <time>2019-01-26T21:43:23Z</time>
      </trkpt>
      <trkpt lat="51.230499945557" lon="4.464473273759">
        <ele>0</ele>
        <time>2019-01-26T21:43:45Z</time>
      </trkpt>
      <trkpt lat="51.230368852641" lon="4.463934736684">
        <ele>0</ele>
        <time>2019-01-26T21:44:17Z</time>
      </trkpt>
      <trkpt lat="51.230208590713" lon="4.46392082273">
        <ele>1.8</ele>
        <time>2019-01-26T21:44:39Z</time>
      </trkpt>
      <trkpt lat="51.230075486141" lon="4.464176889775">
        <ele>1.6</ele>
        <time>2019-01-26T21:45:25Z</time>
      </trkpt>
      <trkpt lat="51.230043970197" lon="4.464199688543">
        <ele>1.6</ele>
        <time>2019-01-26T21:45:28Z</time>
      </trkpt>
      <trkpt lat="51.229911703815" lon="4.464238748197">
        <ele>0</ele>
        <time>2019-01-26T21:45:43Z</time>
      </trkpt>
      <trkpt lat="51.229691259845" lon="4.464289039597">
        <ele>5</ele>
        <time>2019-01-26T21:46:01Z</time>
      </trkpt>
      <trkpt lat="51.229269482637" lon="4.464336229694">
        <ele>21.2</ele>
        <time>2019-01-26T21:46:33Z</time>
      </trkpt>
      <trkpt lat="51.229147945087" lon="4.464052502379">
        <ele>10.2</ele>
        <time>2019-01-26T21:46:53Z</time>
      </trkpt>
      <trkpt lat="51.229089690882" lon="4.463586217282">
        <ele>4.2</ele>
        <time>2019-01-26T21:47:19Z</time>
      </trkpt>
      <trkpt lat="51.229034035066" lon="4.46285632143">
        <ele>0</ele>
        <time>2019-01-26T21:47:52Z</time>
      </trkpt>
      <trkpt lat="51.228987766978" lon="4.462329602834">
        <ele>1</ele>
        <time>2019-01-26T21:48:17Z</time>
      </trkpt>
      <trkpt lat="51.228964381477" lon="4.462131370899">
        <ele>3.4</ele>
        <time>2019-01-26T21:48:26Z</time>
      </trkpt>
      <trkpt lat="51.228873437862" lon="4.461749659173">
        <ele>7.4</ele>
        <time>2019-01-26T21:49:09Z</time>
      </trkpt>
      <trkpt lat="51.228427353144" lon="4.461745216766">
        <ele>8.8</ele>
        <time>2019-01-26T21:49:35Z</time>
      </trkpt>
      <trkpt lat="51.228291314907" lon="4.461146665287">
        <ele>59.8</ele>
        <time>2019-01-26T21:50:48Z</time>
      </trkpt>
      <trkpt lat="51.228212608866" lon="4.460751291064">
        <ele>28.8</ele>
        <time>2019-01-26T21:51:16Z</time>
      </trkpt>
      <trkpt lat="51.228155779584" lon="4.460634028283">
        <ele>24.6</ele>
        <time>2019-01-26T21:51:31Z</time>
      </trkpt>
      <trkpt lat="51.227783036491" lon="4.46067032191">
        <ele>1.6</ele>
        <time>2019-01-26T21:52:13Z</time>
      </trkpt>
      <trkpt lat="51.227411047769" lon="4.46091172063">
        <ele>0</ele>
        <time>2019-01-26T21:52:52Z</time>
      </trkpt>
      <trkpt lat="51.227278194654" lon="4.46021769931">
        <ele>16.2</ele>
        <time>2019-01-26T21:53:32Z</time>
      </trkpt>
      <trkpt lat="51.227134696526" lon="4.459535747926">
        <ele>8.6</ele>
        <time>2019-01-26T21:54:05Z</time>
      </trkpt>
      <trkpt lat="51.227038891409" lon="4.459220923762">
        <ele>4.4</ele>
        <time>2019-01-26T21:54:26Z</time>
      </trkpt>
      <trkpt lat="51.227432002519" lon="4.45888665359">
        <ele>12.2</ele>
        <time>2019-01-26T21:55:03Z</time>
      </trkpt>
      <trkpt lat="51.227618248337" lon="4.458753465199">
        <ele>13.2</ele>
        <time>2019-01-26T21:55:19Z</time>
      </trkpt>
      <trkpt lat="51.228057292259" lon="4.458555400902">
        <ele>10.6</ele>
        <time>2019-01-26T21:55:52Z</time>
      </trkpt>
      <trkpt lat="51.228479991476" lon="4.458318528408">
        <ele>7.2</ele>
        <time>2019-01-26T21:56:30Z</time>
      </trkpt>
      <trkpt lat="51.228545202658" lon="4.458251137932">
        <ele>0.6</ele>
        <time>2019-01-26T21:56:39Z</time>
      </trkpt>
      <trkpt lat="51.228992209385" lon="4.458154159349">
        <ele>11</ele>
        <time>2019-01-26T21:57:21Z</time>
      </trkpt>
      <trkpt lat="51.229434270791" lon="4.458032957075">
        <ele>9.4</ele>
        <time>2019-01-26T21:57:58Z</time>
      </trkpt>
      <trkpt lat="51.229845822081" lon="4.457858445917">
        <ele>1.6</ele>
        <time>2019-01-26T21:58:38Z</time>
      </trkpt>
      <trkpt lat="51.229889156504" lon="4.457907815308">
        <ele>4.2</ele>
        <time>2019-01-26T21:58:49Z</time>
      </trkpt>
      <trkpt lat="51.229850683583" lon="4.458177963945">
        <ele>6</ele>
        <time>2019-01-26T21:59:27Z</time>
      </trkpt>
      <trkpt lat="51.229844816253" lon="4.458153572616">
        <ele>5.8</ele>
        <time>2019-01-26T21:59:29Z</time>
      </trkpt>
      <trkpt lat="51.229759404692" lon="4.457934805026">
        <ele>0.8</ele>
        <time>2019-01-26T21:59:54Z</time>
      </trkpt>
      <trkpt lat="51.229639794979" lon="4.457918125045">
        <ele>0</ele>
        <time>2019-01-26T22:00:22Z</time>
      </trkpt>
    </trkseg>
  </trk>
</gpx>